createdAt,value
2022-11-25T00:01:35.456Z,23.77
2022-11-25T00:04:23.825Z,18.90
2022-11-25T00:07:12.197Z,18.73
2022-11-25T00:10:00.549Z,18.55
2022-11-25T00:12:48.862Z,16.77
2022-11-25T00:15:38.555Z,18.98
2022-11-25T00:18:26.856Z,16.58
2022-11-25T00:21:17.083Z,14.77
2022-11-25T00:24:07.976Z,17.23
2022-11-25T00:26:56.258Z,16.08
2022-11-25T00:29:44.596Z,17.25
2022-11-25T00:32:34.332Z,16.67
2022-11-25T00:35:22.754Z,17.60
2022-11-25T00:38:11.063Z,16.00
2022-11-25T00:41:13.431Z,19.88
2022-11-25T00:44:19.104Z,15.75
2022-11-25T00:47:10.223Z,14.90
2022-11-25T00:52:48.080Z,18.52
2022-11-25T00:56:04.076Z,17.85
2022-11-25T00:58:54.992Z,14.80
2022-11-25T01:01:43.342Z,16.05
2022-11-25T01:04:31.693Z,16.13
2022-11-25T01:07:21.514Z,25.55
2022-11-25T01:10:10.789Z,16.05
2022-11-25T01:12:59.179Z,18.98
2022-11-25T01:15:47.538Z,13.45
2022-11-25T01:18:36.426Z,16.15
2022-11-25T01:21:26.319Z,17.58
2022-11-25T01:24:17.305Z,19.60
2022-11-25T01:27:05.615Z,12.57
2022-11-25T01:29:53.907Z,18.15
2022-11-25T01:32:42.258Z,15.52
2022-11-25T01:35:30.605Z,15.75
2022-11-25T01:38:18.890Z,17.83
2022-11-25T01:41:10.984Z,18.63
2022-11-25T01:44:13.939Z,14.90
2022-11-25T01:47:05.944Z,15.60
2022-11-25T01:50:00.812Z,19.13
2022-11-25T01:52:53.135Z,14.73
2022-11-25T01:55:46.030Z,15.23
2022-11-25T01:58:38.312Z,13.45
2022-11-25T02:01:26.931Z,13.90
2022-11-25T02:04:17.402Z,12.70
2022-11-25T02:07:10.747Z,14.43
2022-11-25T02:10:01.167Z,11.00
2022-11-25T02:12:49.877Z,12.77
2022-11-25T02:15:39.796Z,10.50
2022-11-25T02:18:29.090Z,12.85
2022-11-25T02:21:25.605Z,12.65
2022-11-25T02:24:19.472Z,14.63
2022-11-25T02:27:09.539Z,14.30
2022-11-25T02:29:57.981Z,13.38
2022-11-25T02:32:47.049Z,13.18
2022-11-25T02:35:37.636Z,13.27
2022-11-25T02:38:32.055Z,11.77
2022-11-25T02:41:25.634Z,12.32
2022-11-25T02:44:15.440Z,12.73
2022-11-25T02:47:03.801Z,15.98
2022-11-25T02:49:52.106Z,16.55
2022-11-25T02:52:41.661Z,14.05
2022-11-25T02:55:30.126Z,13.27
2022-11-25T02:58:18.713Z,12.85
2022-11-25T03:01:09.427Z,12.10
2022-11-25T03:03:58.052Z,14.90
2022-11-25T03:06:46.353Z,10.40
2022-11-25T03:09:34.735Z,11.73
2022-11-25T03:12:23.077Z,12.80
2022-11-25T03:15:11.766Z,9.80
2022-11-25T03:18:01.741Z,17.17
2022-11-25T03:20:53.923Z,10.85
2022-11-25T03:23:42.232Z,14.32
2022-11-25T03:26:30.552Z,11.57
2022-11-25T03:29:18.896Z,13.32
2022-11-25T03:32:09.688Z,13.68
2022-11-25T03:34:59.644Z,12.38
2022-11-25T03:37:48.312Z,11.75
2022-11-25T03:40:36.661Z,12.07
2022-11-25T03:43:24.958Z,10.98
2022-11-25T03:46:13.372Z,12.85
2022-11-25T03:49:01.824Z,17.33
2022-11-25T03:51:51.540Z,15.25
2022-11-25T03:54:39.897Z,16.75
2022-11-25T03:57:28.297Z,18.42
2022-11-25T04:00:16.881Z,15.27
2022-11-25T04:03:05.291Z,14.88
2022-11-25T04:05:53.603Z,14.82
2022-11-25T04:08:43.416Z,17.55
2022-11-25T04:11:45.612Z,18.40
2022-11-25T04:14:34.225Z,17.13
2022-11-25T04:17:22.984Z,17.02
2022-11-25T04:20:13.010Z,18.67
2022-11-25T04:23:01.389Z,22.90
2022-11-25T04:25:52.224Z,20.40
2022-11-25T04:28:40.543Z,21.65
2022-11-25T04:31:28.969Z,19.17
2022-11-25T04:34:17.382Z,20.83
2022-11-25T04:37:05.675Z,20.00
2022-11-25T04:39:53.992Z,20.40
2022-11-25T04:42:43.663Z,17.20
2022-11-25T04:45:51.531Z,16.60
2022-11-25T04:48:40.276Z,19.52
2022-11-25T04:51:28.698Z,19.88
2022-11-25T04:54:17.680Z,18.67
2022-11-25T04:57:06.158Z,17.95
2022-11-25T04:59:55.889Z,18.90
2022-11-25T05:02:44.357Z,25.42
2022-11-25T05:05:32.725Z,18.33
2022-11-25T05:08:21.095Z,18.50
2022-11-25T05:11:09.447Z,22.42
2022-11-25T05:13:57.776Z,19.55
2022-11-25T05:16:47.521Z,23.33
2022-11-25T05:19:36.791Z,23.15
2022-11-25T05:22:27.889Z,15.95
2022-11-25T05:25:17.290Z,28.15
2022-11-25T05:28:05.929Z,15.95
2022-11-25T05:30:54.333Z,18.23
2022-11-25T05:33:43.996Z,18.48
2022-11-25T05:36:32.755Z,14.65
2022-11-25T05:39:21.489Z,17.50
2022-11-25T05:42:10.004Z,17.35
2022-11-25T05:44:58.305Z,17.25
2022-11-25T05:47:46.661Z,16.52
2022-11-25T05:50:37.585Z,19.67
2022-11-25T05:53:25.908Z,24.13
2022-11-25T05:56:14.321Z,17.35
2022-11-25T05:59:03.425Z,21.60
2022-11-25T06:01:54.222Z,27.50
2022-11-25T06:04:42.609Z,17.42
2022-11-25T06:07:32.330Z,23.52
2022-11-25T06:10:21.131Z,22.15
2022-11-25T06:13:09.887Z,23.63
2022-11-25T06:16:00.281Z,33.42
2022-11-25T06:18:51.154Z,25.25
2022-11-25T06:21:39.503Z,24.38
2022-11-25T06:24:30.297Z,23.35
2022-11-25T06:27:18.611Z,28.23
2022-11-25T06:30:08.451Z,19.67
2022-11-25T06:32:57.124Z,20.98
2022-11-25T06:35:45.459Z,20.98
2022-11-25T06:38:34.188Z,18.92
2022-11-25T06:41:24.245Z,23.88
2022-11-25T06:44:12.542Z,26.25
2022-11-25T06:47:00.890Z,17.50
2022-11-25T06:49:51.145Z,17.40
2022-11-25T06:52:39.539Z,22.33
2022-11-25T06:55:27.897Z,20.30
2022-11-25T06:58:34.821Z,20.77
2022-11-25T07:01:26.334Z,22.88
2022-11-25T07:04:14.780Z,17.43
2022-11-25T07:07:03.144Z,25.58
2022-11-25T07:09:51.543Z,20.35
2022-11-25T07:12:40.106Z,18.95
2022-11-25T07:15:29.919Z,18.30
2022-11-25T07:18:18.385Z,16.35
2022-11-25T07:21:09.201Z,17.50
2022-11-25T07:23:59.299Z,19.67
2022-11-25T07:26:47.676Z,19.45
2022-11-25T07:29:57.909Z,21.77
2022-11-25T07:32:46.370Z,16.38
2022-11-25T07:35:35.403Z,24.25
2022-11-25T07:38:23.902Z,15.75
2022-11-25T07:41:14.657Z,18.17
2022-11-25T07:44:05.788Z,11.32
2022-11-25T07:46:54.186Z,21.27
2022-11-25T07:49:44.045Z,15.38
2022-11-25T07:52:32.360Z,19.98
2022-11-25T07:55:20.706Z,13.18
2022-11-25T07:58:09.030Z,17.17
2022-11-25T08:00:57.432Z,11.43
2022-11-25T08:03:47.454Z,19.55
2022-11-25T08:06:40.102Z,15.30
2022-11-25T08:09:28.429Z,17.50
2022-11-25T08:12:16.773Z,17.80
2022-11-25T08:15:05.447Z,22.45
2022-11-25T08:17:53.971Z,17.08
2022-11-25T08:20:42.312Z,19.98
2022-11-25T08:23:32.974Z,16.85
2022-11-25T08:26:23.814Z,17.63
2022-11-25T08:29:16.028Z,18.23
2022-11-25T08:32:10.297Z,19.92
2022-11-25T08:35:00.222Z,16.98
2022-11-25T08:37:48.600Z,18.98
2022-11-25T08:40:38.848Z,19.58
2022-11-25T08:43:29.706Z,19.95
2022-11-25T08:46:20.548Z,19.73
2022-11-25T08:49:10.027Z,18.25
2022-11-25T08:51:58.441Z,18.10
2022-11-25T08:54:46.771Z,24.23
2022-11-25T08:57:36.594Z,17.33
2022-11-25T09:00:25.067Z,17.67
2022-11-25T09:03:13.787Z,21.45
2022-11-25T09:06:02.220Z,17.27
2022-11-25T09:08:50.542Z,16.80
2022-11-25T09:11:38.971Z,18.30
2022-11-25T09:14:28.745Z,19.30
2022-11-25T09:17:17.158Z,21.60
2022-11-25T09:20:06.408Z,27.45
2022-11-25T09:22:54.984Z,19.27
2022-11-25T09:25:43.274Z,17.58
2022-11-25T09:28:31.617Z,16.52
2022-11-25T09:31:22.122Z,20.80
2022-11-25T09:34:10.542Z,26.48
2022-11-25T09:36:58.887Z,22.55
2022-11-25T09:39:47.224Z,21.35
2022-11-25T09:43:10.125Z,22.65
2022-11-25T09:46:34.655Z,21.42
2022-11-25T09:49:49.129Z,21.95
2022-11-25T09:52:49.281Z,21.98
2022-11-25T09:55:43.081Z,17.50
2022-11-25T09:58:35.476Z,23.15
2022-11-25T10:01:26.660Z,14.80
2022-11-25T10:07:11.422Z,24.10
2022-11-25T10:10:02.580Z,16.75
2022-11-25T10:15:44.325Z,21.65
2022-11-25T10:18:40.295Z,23.70
2022-11-25T10:21:29.404Z,21.95
2022-11-25T10:24:21.455Z,21.27
2022-11-25T10:27:19.288Z,21.52
2022-11-25T10:30:16.646Z,22.83
2022-11-25T10:33:11.109Z,20.45
2022-11-25T10:36:02.094Z,17.85
2022-11-25T10:39:00.444Z,15.85
2022-11-25T10:41:58.879Z,20.83
2022-11-25T10:44:47.205Z,21.98
2022-11-25T10:47:38.681Z,23.48
2022-11-25T10:50:34.998Z,20.27
2022-11-25T10:53:26.422Z,18.80
2022-11-25T10:56:19.980Z,17.92
2022-11-25T10:59:22.024Z,18.13
2022-11-25T11:02:20.479Z,20.10
2022-11-25T11:05:23.258Z,17.60
2022-11-25T11:08:19.109Z,13.00
2022-11-25T11:11:19.427Z,16.45
2022-11-25T11:14:21.206Z,16.97
2022-11-25T11:17:38.256Z,15.32
2022-11-25T11:20:28.916Z,14.50
2022-11-25T11:23:17.656Z,15.43
2022-11-25T11:26:09.776Z,14.95
2022-11-25T11:29:01.056Z,20.15
2022-11-25T11:31:57.067Z,17.83
2022-11-25T11:34:59.258Z,17.13
2022-11-25T11:37:53.021Z,22.00
2022-11-25T11:40:46.590Z,16.23
2022-11-25T11:43:57.015Z,15.82
2022-11-25T11:46:59.630Z,15.70
2022-11-25T11:50:03.349Z,26.70
2022-11-25T11:52:58.450Z,12.70
2022-11-25T11:56:19.032Z,15.95
2022-11-25T11:59:26.372Z,15.32
2022-11-25T12:02:36.529Z,19.77
2022-11-25T12:05:28.766Z,16.25
2022-11-25T12:08:24.172Z,15.48
2022-11-25T12:11:15.824Z,14.55
2022-11-25T12:14:10.656Z,12.70
2022-11-25T12:17:02.107Z,16.73
2022-11-25T12:19:58.129Z,18.50
2022-11-25T12:22:53.396Z,17.55
2022-11-25T12:25:43.323Z,17.23
2022-11-25T12:28:38.791Z,13.98
2022-11-25T12:31:30.414Z,19.42
2022-11-25T12:34:27.612Z,16.73
2022-11-25T12:37:28.195Z,19.92
2022-11-25T12:40:19.833Z,11.10
2022-11-25T12:43:24.490Z,17.05
2022-11-25T12:46:25.748Z,14.50
2022-11-25T12:49:19.780Z,27.70
2022-11-25T12:52:19.946Z,15.63
2022-11-25T12:55:16.518Z,22.23
2022-11-25T12:58:38.064Z,18.50
2022-11-25T13:01:40.386Z,18.75
2022-11-25T13:04:44.290Z,15.65
2022-11-25T13:07:42.179Z,17.45
2022-11-25T13:10:41.906Z,17.60
2022-11-25T13:13:43.774Z,21.67
2022-11-25T13:16:33.159Z,19.67
2022-11-25T13:19:22.479Z,23.15
2022-11-25T13:22:29.688Z,19.73
2022-11-25T13:25:25.718Z,19.25
2022-11-25T13:28:32.773Z,18.45
2022-11-25T13:31:24.304Z,23.63
2022-11-25T13:34:27.316Z,19.92
2022-11-25T13:37:40.000Z,26.38
2022-11-25T13:40:39.817Z,18.42
2022-11-25T13:43:28.701Z,22.20
2022-11-25T13:46:30.972Z,21.92
2022-11-25T13:49:25.895Z,25.10
2022-11-25T13:52:37.112Z,16.20
2022-11-25T13:58:21.367Z,13.27
2022-11-25T14:01:29.492Z,10.65
2022-11-25T14:04:25.365Z,18.25
2022-11-25T14:07:27.870Z,12.13
2022-11-25T14:10:40.557Z,12.38
2022-11-25T14:13:47.391Z,16.25
2022-11-25T14:16:58.733Z,13.35
2022-11-25T14:23:15.295Z,11.35
2022-11-25T14:26:26.751Z,10.00
2022-11-25T14:29:23.076Z,11.40
2022-11-25T14:32:15.796Z,8.45
2022-11-25T14:35:10.087Z,9.40
2022-11-25T14:38:02.458Z,9.82
2022-11-25T14:40:57.285Z,13.25
2022-11-25T14:43:49.809Z,15.82
2022-11-25T14:46:52.285Z,11.43
2022-11-25T14:50:05.712Z,17.02
2022-11-25T14:53:02.015Z,12.82
2022-11-25T14:55:51.080Z,17.38
2022-11-25T14:58:42.545Z,12.77
2022-11-25T15:01:32.176Z,10.90
2022-11-25T15:04:23.035Z,10.80
2022-11-25T15:07:20.193Z,18.75
2022-11-25T15:10:31.490Z,15.90
2022-11-25T15:16:22.225Z,16.67
2022-11-25T15:19:19.271Z,14.55
2022-11-25T15:22:23.144Z,14.82
2022-11-25T15:25:16.155Z,11.65
2022-11-25T15:28:17.107Z,14.85
2022-11-25T15:31:12.583Z,16.80
2022-11-25T15:34:03.755Z,14.13
2022-11-25T15:39:43.141Z,14.35
2022-11-25T15:42:33.692Z,11.27
2022-11-25T15:45:23.810Z,14.25
2022-11-25T15:48:18.806Z,19.15
2022-11-25T15:51:21.842Z,15.43
2022-11-25T15:54:19.973Z,18.63
2022-11-25T15:57:17.830Z,25.83
2022-11-25T16:00:16.905Z,16.65
2022-11-25T16:03:20.822Z,18.98
2022-11-25T16:06:21.119Z,17.67
2022-11-25T16:09:21.895Z,17.27
2022-11-25T16:12:17.795Z,22.02
2022-11-25T16:15:16.988Z,16.35
2022-11-25T16:18:32.389Z,19.30
2022-11-25T16:21:22.854Z,17.20
2022-11-25T16:24:27.867Z,13.00
2022-11-25T16:27:19.528Z,15.35
2022-11-25T16:30:19.494Z,15.32
2022-11-25T16:33:11.855Z,18.40
2022-11-25T16:36:03.222Z,14.52
2022-11-25T16:38:55.369Z,16.17
2022-11-25T16:41:46.293Z,19.75
2022-11-25T16:44:36.591Z,15.50
2022-11-25T16:47:26.233Z,15.87
2022-11-25T16:50:18.506Z,18.67
2022-11-25T16:53:06.808Z,15.75
2022-11-25T16:55:55.135Z,16.67
2022-11-25T16:58:44.709Z,12.88
2022-11-25T17:01:35.026Z,10.27
2022-11-25T17:04:23.535Z,21.02
2022-11-25T17:07:32.311Z,18.92
2022-11-25T17:10:22.308Z,15.07
2022-11-25T17:13:18.863Z,13.65
2022-11-25T17:16:08.013Z,18.58
2022-11-25T17:18:59.360Z,20.65
2022-11-25T17:21:47.827Z,20.95
2022-11-25T17:24:37.741Z,14.32
2022-11-25T17:27:32.289Z,16.98
2022-11-25T17:30:23.952Z,23.00
2022-11-25T17:33:16.434Z,18.92
2022-11-25T17:36:05.214Z,20.25
2022-11-25T17:38:53.875Z,24.42
2022-11-25T17:41:47.702Z,23.60
2022-11-25T17:44:36.334Z,21.02
2022-11-25T17:47:24.957Z,22.73
2022-11-25T17:50:19.377Z,23.48
2022-11-25T17:53:07.929Z,19.73
2022-11-25T17:55:56.479Z,19.98
2022-11-25T17:58:46.442Z,18.33
2022-11-25T18:01:34.855Z,20.30
2022-11-25T18:04:25.226Z,22.33
2022-11-25T18:07:13.670Z,19.05
2022-11-25T18:10:01.984Z,16.88
2022-11-25T18:12:53.408Z,20.73
2022-11-25T18:15:44.062Z,18.38
2022-11-25T18:18:32.446Z,14.95
2022-11-25T18:21:23.834Z,20.38
2022-11-25T18:24:12.229Z,19.48
2022-11-25T18:27:00.665Z,21.35
2022-11-25T18:29:49.645Z,20.13
2022-11-25T18:32:39.313Z,16.67
2022-11-25T18:35:34.288Z,20.77
2022-11-25T18:38:24.733Z,25.70
2022-11-25T18:41:20.299Z,19.63
2022-11-25T18:44:25.530Z,24.45
2022-11-25T18:47:14.529Z,17.58
2022-11-25T18:50:07.685Z,19.55
2022-11-25T18:52:56.024Z,15.48
2022-11-25T18:55:44.739Z,16.63
2022-11-25T18:58:33.707Z,15.98
2022-11-25T19:01:24.282Z,21.08
2022-11-25T19:04:17.089Z,15.43
2022-11-25T19:07:06.811Z,16.92
2022-11-25T19:09:55.175Z,15.88
2022-11-25T19:12:44.918Z,18.88
2022-11-25T19:15:34.157Z,20.42
2022-11-25T19:18:26.133Z,20.92
2022-11-25T19:21:17.071Z,20.33
2022-11-25T19:24:13.493Z,18.63
2022-11-25T19:27:01.857Z,17.52
2022-11-25T19:29:51.698Z,22.67
2022-11-25T19:32:40.035Z,29.55
2022-11-25T19:35:38.486Z,21.13
2022-11-25T19:38:27.200Z,24.60
2022-11-25T19:41:16.928Z,23.10
2022-11-25T19:44:05.332Z,24.17
2022-11-25T19:47:14.429Z,24.60
2022-11-25T19:50:03.304Z,25.13
2022-11-25T19:52:52.071Z,23.23
2022-11-25T19:55:40.462Z,23.27
2022-11-25T19:58:30.184Z,29.45
2022-11-25T20:01:20.823Z,23.98
2022-11-25T20:04:19.777Z,22.23
2022-11-25T20:07:11.183Z,27.27
2022-11-25T20:10:08.807Z,29.75
2022-11-25T20:12:58.884Z,24.33
2022-11-25T20:15:48.639Z,18.67
2022-11-25T20:18:38.103Z,24.10
2022-11-25T20:21:30.978Z,31.25
2022-11-25T20:24:21.744Z,24.08
2022-11-25T20:27:12.942Z,31.85
2022-11-25T20:32:51.902Z,26.83
2022-11-25T20:35:41.192Z,26.83
2022-11-25T20:38:31.241Z,25.27
2022-11-25T20:41:24.376Z,29.77
2022-11-25T20:44:16.170Z,29.58
2022-11-25T20:47:04.825Z,28.40
2022-11-25T20:49:54.882Z,25.70
2022-11-25T20:52:44.136Z,28.88
2022-11-25T20:55:33.004Z,32.35
2022-11-25T20:58:24.622Z,28.13
2022-11-25T21:01:14.532Z,27.58
2022-11-25T21:04:02.989Z,27.13
2022-11-25T21:06:53.283Z,33.40
2022-11-25T21:09:42.339Z,27.58
2022-11-25T21:12:30.715Z,28.88
2022-11-25T21:15:21.218Z,31.60
2022-11-25T21:18:09.787Z,25.65
2022-11-25T21:20:58.836Z,30.92
2022-11-25T21:23:49.282Z,24.65
2022-11-25T21:26:37.635Z,28.30
2022-11-25T21:29:26.968Z,31.30
2022-11-25T21:32:21.747Z,39.08
2022-11-25T21:35:12.061Z,28.95
2022-11-25T21:38:04.507Z,33.10
2022-11-25T21:40:56.307Z,38.13
2022-11-25T21:43:46.764Z,32.83
2022-11-25T21:46:35.500Z,38.35
2022-11-25T21:49:25.134Z,35.75
2022-11-25T21:52:14.216Z,31.92
2022-11-25T21:55:02.727Z,34.03
2022-11-25T21:57:52.494Z,36.38
2022-11-25T22:00:41.112Z,36.88
2022-11-25T22:03:32.065Z,37.45
2022-11-25T22:06:24.067Z,32.60
2022-11-25T22:09:13.025Z,33.08
2022-11-25T22:12:01.671Z,35.92
2022-11-25T22:14:51.401Z,32.25
2022-11-25T22:17:39.958Z,27.70
2022-11-25T22:20:30.838Z,34.42
2022-11-25T22:23:20.549Z,33.53
2022-11-25T22:26:13.334Z,28.80
2022-11-25T22:29:02.830Z,32.13
2022-11-25T22:31:52.914Z,26.45
2022-11-25T22:34:41.347Z,27.65
2022-11-25T22:37:30.596Z,27.90
2022-11-25T22:40:19.219Z,33.47
2022-11-25T22:43:07.758Z,34.03
2022-11-25T22:45:57.433Z,31.35
2022-11-25T22:48:47.539Z,31.38
2022-11-25T22:51:35.896Z,36.50
2022-11-25T22:54:24.925Z,28.30
2022-11-25T22:57:13.466Z,33.88
2022-11-25T23:00:01.800Z,31.45
2022-11-25T23:02:50.931Z,28.25
2022-11-25T23:05:40.996Z,30.67
2022-11-25T23:08:31.713Z,28.98
2022-11-25T23:11:22.194Z,33.22
2022-11-25T23:14:10.776Z,37.08
2022-11-25T23:16:59.131Z,30.63
2022-11-25T23:19:48.335Z,32.38
2022-11-25T23:22:38.032Z,34.65
2022-11-25T23:25:26.355Z,34.33
2022-11-25T23:28:16.271Z,35.13
2022-11-25T23:31:04.681Z,38.38
2022-11-25T23:33:53.566Z,40.63
2022-11-25T23:36:45.777Z,38.67
2022-11-25T23:39:35.516Z,38.13
2022-11-25T23:42:23.841Z,36.25
2022-11-25T23:45:15.610Z,35.60
2022-11-25T23:48:05.018Z,35.47
2022-11-25T23:50:56.288Z,38.33
2022-11-25T23:53:45.052Z,41.05
2022-11-25T23:56:34.739Z,43.45
2022-11-25T23:59:25.031Z,39.65
